sensor_id;sensor_type;location;lat;lon;timestamp;pressure;altitude;pressure_sealevel;temperature
67515;BMP280;60646;55.802;37.032;2023-02-05T00:02:07;100357.72;;;4.35
67515;BMP280;60646;55.802;37.032;2023-02-05T00:04:34;100364.56;;;4.33
67515;BMP280;60646;55.802;37.032;2023-02-05T00:07:00;100363.06;;;4.32
67515;BMP280;60646;55.802;37.032;2023-02-05T00:09:26;100369.47;;;4.34
67515;BMP280;60646;55.802;37.032;2023-02-05T00:11:54;100360.22;;;4.26
67515;BMP280;60646;55.802;37.032;2023-02-05T00:14:20;100371.84;;;4.29
67515;BMP280;60646;55.802;37.032;2023-02-05T00:16:45;100361.00;;;4.23
67515;BMP280;60646;55.802;37.032;2023-02-05T00:19:11;100380.44;;;4.33
67515;BMP280;60646;55.802;37.032;2023-02-05T00:21:37;100372.25;;;4.27
67515;BMP280;60646;55.802;37.032;2023-02-05T00:24:03;100372.25;;;4.27
67515;BMP280;60646;55.802;37.032;2023-02-05T00:26:29;100380.28;;;4.23
67515;BMP280;60646;55.802;37.032;2023-02-05T00:28:55;100391.19;;;4.26
67515;BMP280;60646;55.802;37.032;2023-02-05T00:31:22;100379.97;;;4.21
67515;BMP280;60646;55.802;37.032;2023-02-05T00:33:49;100397.13;;;4.30
67515;BMP280;60646;55.802;37.032;2023-02-05T00:36:16;100383.75;;;4.20
67515;BMP280;60646;55.802;37.032;2023-02-05T00:38:42;100387.06;;;4.25
67515;BMP280;60646;55.802;37.032;2023-02-05T00:41:09;100402.44;;;4.30
67515;BMP280;60646;55.802;37.032;2023-02-05T00:43:37;100383.00;;;4.20
67515;BMP280;60646;55.802;37.032;2023-02-05T00:46:03;100397.97;;;4.27
67515;BMP280;60646;55.802;37.032;2023-02-05T00:48:30;100381.50;;;4.19
67515;BMP280;60646;55.802;37.032;2023-02-05T00:50:56;100400.94;;;4.29
67515;BMP280;60646;55.802;37.032;2023-02-05T00:53:22;100411.50;;;4.29
67515;BMP280;60646;55.802;37.032;2023-02-05T00:55:49;100407.72;;;4.30
67515;BMP280;60646;55.802;37.032;2023-02-05T00:58:15;100403.91;;;4.31
67515;BMP280;60646;55.802;37.032;2023-02-05T01:00:41;100392.00;;;4.22
67515;BMP280;60646;55.802;37.032;2023-02-05T01:03:08;100387.22;;;4.17
67515;BMP280;60646;55.802;37.032;2023-02-05T01:05:35;100395.66;;;4.29
67515;BMP280;60646;55.802;37.032;2023-02-05T01:08:01;100396.41;;;4.29
67515;BMP280;60646;55.802;37.032;2023-02-05T01:10:27;100393.50;;;4.23
67515;BMP280;60646;55.802;37.032;2023-02-05T01:12:53;100391.19;;;4.26
67515;BMP280;60646;55.802;37.032;2023-02-05T01:15:19;100383.41;;;4.18
67515;BMP280;60646;55.802;37.032;2023-02-05T01:17:45;100412.06;;;4.36
67515;BMP280;60646;55.802;37.032;2023-02-05T01:20:13;100412.50;;;4.35
67515;BMP280;60646;55.802;37.032;2023-02-05T01:22:40;100399.44;;;4.28
67515;BMP280;60646;55.802;37.032;2023-02-05T01:25:06;100421.06;;;4.39
67515;BMP280;60646;55.802;37.032;2023-02-05T01:27:33;100419.94;;;4.40
67515;BMP280;60646;55.802;37.032;2023-02-05T01:30:02;100413.31;;;4.32
67515;BMP280;60646;55.802;37.032;2023-02-05T01:32:30;100400.94;;;4.29
67515;BMP280;60646;55.802;37.032;2023-02-05T01:34:55;100409.28;;;4.27
67515;BMP280;60646;55.802;37.032;2023-02-05T01:37:21;100419.28;;;4.36
67515;BMP280;60646;55.802;37.032;2023-02-05T01:39:47;100401.44;;;4.23
67515;BMP280;60646;55.802;37.032;2023-02-05T01:42:18;100421.91;;;4.36
67515;BMP280;60646;55.802;37.032;2023-02-05T01:47:58;100404.41;;;4.26
67515;BMP280;60646;55.802;37.032;2023-02-05T01:50:44;100423.31;;;4.40
67515;BMP280;60646;55.802;37.032;2023-02-05T01:53:15;100411.50;;;4.29
67515;BMP280;60646;55.802;37.032;2023-02-05T01:55:44;100422.88;;;4.42
67515;BMP280;60646;55.802;37.032;2023-02-05T01:58:12;100409.22;;;4.31
67515;BMP280;60646;55.802;37.032;2023-02-05T02:00:38;100417.34;;;4.36
67515;BMP280;60646;55.802;37.032;2023-02-05T02:03:04;100401.91;;;4.18
67515;BMP280;60646;55.802;37.032;2023-02-05T02:05:30;100409.03;;;4.21
67515;BMP280;60646;55.802;37.032;2023-02-05T02:07:55;100419.13;;;4.27
67515;BMP280;60646;55.802;37.032;2023-02-05T02:10:21;100428.47;;;4.31
67515;BMP280;60646;55.802;37.032;2023-02-05T02:12:48;100418.44;;;4.22
67515;BMP280;60646;55.802;37.032;2023-02-05T02:15:21;100430.38;;;4.31
67515;BMP280;60646;55.802;37.032;2023-02-05T02:17:55;100413.97;;;4.19
67515;BMP280;60646;55.802;37.032;2023-02-05T02:20:42;100420.69;;;4.24
67515;BMP280;60646;55.802;37.032;2023-02-05T02:29:04;100431.25;;;4.24
67515;BMP280;60646;55.802;37.032;2023-02-05T02:31:38;100421.25;;;4.15
67515;BMP280;60646;55.802;37.032;2023-02-05T02:34:17;100418.59;;;4.15
67515;BMP280;60646;55.802;37.032;2023-02-05T02:36:55;100441.09;;;4.23
67515;BMP280;60646;55.802;37.032;2023-02-05T02:39:32;100430.03;;;4.12
67515;BMP280;60646;55.802;37.032;2023-02-05T02:42:15;100440.09;;;4.17
67515;BMP280;60646;55.802;37.032;2023-02-05T02:44:52;100439.75;;;4.15
67515;BMP280;60646;55.802;37.032;2023-02-05T02:47:21;100448.44;;;4.16
67515;BMP280;60646;55.802;37.032;2023-02-05T02:52:16;100453.41;;;4.14
67515;BMP280;60646;55.802;37.032;2023-02-05T02:54:46;100431.84;;;3.99
67515;BMP280;60646;55.802;37.032;2023-02-05T02:57:16;100449.34;;;4.09
67515;BMP280;60646;55.802;37.032;2023-02-05T02:59:45;100449.03;;;4.07
67515;BMP280;60646;55.802;37.032;2023-02-05T03:02:12;100439.34;;;4.01
67515;BMP280;60646;55.802;37.032;2023-02-05T03:04:47;100434.97;;;3.94
67515;BMP280;60646;55.802;37.032;2023-02-05T03:07:25;100456.53;;;4.09
67515;BMP280;60646;55.802;37.032;2023-02-05T03:12:25;100453.50;;;4.10
67515;BMP280;60646;55.802;37.032;2023-02-05T03:14:52;100451.81;;;4.00
67515;BMP280;60646;55.802;37.032;2023-02-05T03:17:19;100463.47;;;4.03
67515;BMP280;60646;55.802;37.032;2023-02-05T03:19:51;100449.34;;;3.93
67515;BMP280;60646;55.802;37.032;2023-02-05T03:22:21;100456.78;;;3.98
67515;BMP280;60646;55.802;37.032;2023-02-05T03:24:47;100447.19;;;3.88
67515;BMP280;60646;55.802;37.032;2023-02-05T03:27:13;100452.41;;;3.92
67515;BMP280;60646;55.802;37.032;2023-02-05T03:29:40;100443.88;;;3.84
67515;BMP280;60646;55.802;37.032;2023-02-05T03:32:26;100460.66;;;3.94
67515;BMP280;60646;55.802;37.032;2023-02-05T03:40:25;100470.63;;;3.86
67515;BMP280;60646;55.802;37.032;2023-02-05T03:46:15;100471.84;;;3.82
67515;BMP280;60646;55.802;37.032;2023-02-05T03:54:02;100471.59;;;3.76
67515;BMP280;60646;55.802;37.032;2023-02-05T03:56:41;100464.31;;;3.64
67515;BMP280;60646;55.802;37.032;2023-02-05T03:59:10;100466.63;;;3.62
67515;BMP280;60646;55.802;37.032;2023-02-05T04:01:40;100464.44;;;3.57
67515;BMP280;60646;55.802;37.032;2023-02-05T04:04:06;100453.34;;;3.46
67515;BMP280;60646;55.802;37.032;2023-02-05T04:06:32;100470.59;;;3.50
67515;BMP280;60646;55.802;37.032;2023-02-05T04:08:58;100466.25;;;3.44
67515;BMP280;60646;55.802;37.032;2023-02-05T04:11:25;100470.03;;;3.43
67515;BMP280;60646;55.802;37.032;2023-02-05T04:13:51;100479.09;;;3.42
67515;BMP280;60646;55.802;37.032;2023-02-05T04:16:17;100474.06;;;3.28
67515;BMP280;60646;55.802;37.032;2023-02-05T04:18:43;100478.75;;;3.20
67515;BMP280;60646;55.802;37.032;2023-02-05T04:21:09;100483.41;;;3.12
67515;BMP280;60646;55.802;37.032;2023-02-05T04:23:38;100484.19;;;3.09
67515;BMP280;60646;55.802;37.032;2023-02-05T04:26:06;100476.88;;;2.97
67515;BMP280;60646;55.802;37.032;2023-02-05T04:28:38;100498.28;;;3.03
67515;BMP280;60646;55.802;37.032;2023-02-05T04:31:07;100493.66;;;2.87
67515;BMP280;60646;55.802;37.032;2023-02-05T04:33:33;100479.53;;;2.74
67515;BMP280;60646;55.802;37.032;2023-02-05T04:35:59;100493.84;;;2.73
67515;BMP280;60646;55.802;37.032;2023-02-05T04:38:26;100507.41;;;2.75
67515;BMP280;60646;55.802;37.032;2023-02-05T04:40:52;100488.84;;;2.59
67515;BMP280;60646;55.802;37.032;2023-02-05T04:43:18;100509.13;;;2.62
67515;BMP280;60646;55.802;37.032;2023-02-05T04:45:43;100504.75;;;2.52
67515;BMP280;60646;55.802;37.032;2023-02-05T04:48:10;100509.78;;;2.43
67515;BMP280;60646;55.802;37.032;2023-02-05T04:50:37;100526.34;;;2.43
67515;BMP280;60646;55.802;37.032;2023-02-05T04:53:04;100532.44;;;2.37
67515;BMP280;60646;55.802;37.032;2023-02-05T04:55:30;100520.97;;;2.23
67515;BMP280;60646;55.802;37.032;2023-02-05T04:57:58;100524.47;;;2.17
67515;BMP280;60646;55.802;37.032;2023-02-05T05:00:25;100532.41;;;2.13
67515;BMP280;60646;55.802;37.032;2023-02-05T05:02:51;100531.69;;;2.09
67515;BMP280;60646;55.802;37.032;2023-02-05T05:05:17;100529.19;;;1.99
67515;BMP280;60646;55.802;37.032;2023-02-05T05:07:43;100541.19;;;2.03
67515;BMP280;60646;55.802;37.032;2023-02-05T05:10:10;100554.31;;;2.07
67515;BMP280;60646;55.802;37.032;2023-02-05T05:12:36;100555.13;;;2.00
67515;BMP280;60646;55.802;37.032;2023-02-05T05:15:03;100559.75;;;1.93
67515;BMP280;60646;55.802;37.032;2023-02-05T05:17:30;100562.75;;;1.91
67515;BMP280;60646;55.802;37.032;2023-02-05T05:19:57;100541.91;;;1.73
67515;BMP280;60646;55.802;37.032;2023-02-05T05:22:23;100548.72;;;1.71
67515;BMP280;60646;55.802;37.032;2023-02-05T05:24:50;100557.00;;;1.69
67515;BMP280;60646;55.802;37.032;2023-02-05T05:27:15;100555.53;;;1.65
67515;BMP280;60646;55.802;37.032;2023-02-05T05:29:44;100567.94;;;1.68
67515;BMP280;60646;55.802;37.032;2023-02-05T05:32:12;100561.69;;;1.51
67515;BMP280;60646;55.802;37.032;2023-02-05T05:34:38;100578.22;;;1.52
67515;BMP280;60646;55.802;37.032;2023-02-05T05:37:04;100569.31;;;1.38
67515;BMP280;60646;55.802;37.032;2023-02-05T05:39:29;100579.84;;;1.38
67515;BMP280;60646;55.802;37.032;2023-02-05T05:42:14;100558.94;;;1.24
67515;BMP280;60646;55.802;37.032;2023-02-05T05:44:58;100565.72;;;1.18
67515;BMP280;60646;55.802;37.032;2023-02-05T05:47:24;100571.03;;;1.15
67515;BMP280;60646;55.802;37.032;2023-02-05T05:49:51;100562.84;;;1.02
67515;BMP280;60646;55.802;37.032;2023-02-05T05:52:17;100588.34;;;1.12
67515;BMP280;60646;55.802;37.032;2023-02-05T05:54:43;100565.19;;;0.93
67515;BMP280;60646;55.802;37.032;2023-02-05T05:57:08;100574.97;;;0.89
67515;BMP280;60646;55.802;37.032;2023-02-05T05:59:34;100573.13;;;0.82
67515;BMP280;60646;55.802;37.032;2023-02-05T06:02:01;100585.88;;;0.87
67515;BMP280;60646;55.802;37.032;2023-02-05T06:04:27;100569.06;;;0.71
67515;BMP280;60646;55.802;37.032;2023-02-05T06:06:53;100576.59;;;0.69
67515;BMP280;60646;55.802;37.032;2023-02-05T06:09:19;100583.34;;;0.70
67515;BMP280;60646;55.802;37.032;2023-02-05T06:11:47;100581.91;;;0.62
67515;BMP280;60646;55.802;37.032;2023-02-05T06:14:13;100589.81;;;0.58
67515;BMP280;60646;55.802;37.032;2023-02-05T06:16:39;100596.16;;;0.61
67515;BMP280;60646;55.802;37.032;2023-02-05T06:19:06;100598.06;;;0.57
67515;BMP280;60646;55.802;37.032;2023-02-05T06:21:32;100582.72;;;0.44
67515;BMP280;60646;55.802;37.032;2023-02-05T06:23:57;100612.72;;;0.54
67515;BMP280;60646;55.802;37.032;2023-02-05T06:26:23;100583.53;;;0.34
67515;BMP280;60646;55.802;37.032;2023-02-05T06:28:50;100606.00;;;0.50
67515;BMP280;60646;55.802;37.032;2023-02-05T06:31:16;100612.75;;;0.43
67515;BMP280;60646;55.802;37.032;2023-02-05T06:33:42;100601.88;;;0.38
67515;BMP280;60646;55.802;37.032;2023-02-05T06:36:09;100617.63;;;0.49
67515;BMP280;60646;55.802;37.032;2023-02-05T06:38:35;100606.78;;;0.39
67515;BMP280;60646;55.802;37.032;2023-02-05T06:41:01;100613.50;;;0.47
67515;BMP280;60646;55.802;37.032;2023-02-05T06:43:27;100602.66;;;0.38
67515;BMP280;60646;55.802;37.032;2023-02-05T06:45:55;100610.53;;;0.38
67515;BMP280;60646;55.802;37.032;2023-02-05T06:48:21;100615.75;;;0.45
67515;BMP280;60646;55.802;37.032;2023-02-05T06:50:47;100608.66;;;0.39
67515;BMP280;60646;55.802;37.032;2023-02-05T06:53:12;100611.31;;;0.35
67515;BMP280;60646;55.802;37.032;2023-02-05T06:55:38;100621.41;;;0.40
67515;BMP280;60646;55.802;37.032;2023-02-05T06:58:04;100615.75;;;0.42
67515;BMP280;60646;55.802;37.032;2023-02-05T07:00:50;100612.78;;;0.36
67515;BMP280;60646;55.802;37.032;2023-02-05T07:03:16;100624.03;;;0.44
67515;BMP280;60646;55.802;37.032;2023-02-05T07:05:42;100637.53;;;0.50
67515;BMP280;60646;55.802;37.032;2023-02-05T07:08:08;100643.50;;;0.54
67515;BMP280;60646;55.802;37.032;2023-02-05T07:10:33;100623.63;;;0.49
67515;BMP280;60646;55.802;37.032;2023-02-05T07:12:59;100627.75;;;0.54
67515;BMP280;60646;55.802;37.032;2023-02-05T07:15:25;100623.22;;;0.51
67515;BMP280;60646;55.802;37.032;2023-02-05T07:17:51;100639.72;;;0.62
67515;BMP280;60646;55.802;37.032;2023-02-05T07:20:17;100628.84;;;0.63
67515;BMP280;60646;55.802;37.032;2023-02-05T07:22:43;100625.06;;;0.64
67515;BMP280;60646;55.802;37.032;2023-02-05T07:25:11;100641.16;;;0.80
67515;BMP280;60646;55.802;37.032;2023-02-05T07:27:38;100635.53;;;0.75
67515;BMP280;60646;55.802;37.032;2023-02-05T07:30:06;100641.91;;;0.81
67515;BMP280;60646;55.802;37.032;2023-02-05T07:32:31;100646.38;;;0.84
67515;BMP280;60646;55.802;37.032;2023-02-05T07:34:57;100642.25;;;0.83
67515;BMP280;60646;55.802;37.032;2023-02-05T07:37:23;100638.13;;;0.85
67515;BMP280;60646;55.802;37.032;2023-02-05T07:39:49;100643.34;;;0.89
67515;BMP280;60646;55.802;37.032;2023-02-05T07:42:16;100645.97;;;0.89
67515;BMP280;60646;55.802;37.032;2023-02-05T07:44:49;100650.47;;;0.92
67515;BMP280;60646;55.802;37.032;2023-02-05T07:47:14;100664.66;;;1.05
67515;BMP280;60646;55.802;37.032;2023-02-05T07:49:40;100655.31;;;1.01
67515;BMP280;60646;55.802;37.032;2023-02-05T07:52:06;100651.53;;;1.02
67515;BMP280;60646;55.802;37.032;2023-02-05T07:54:32;100661.28;;;1.08
67515;BMP280;60646;55.802;37.032;2023-02-05T07:56:58;100668.78;;;1.13
67515;BMP280;60646;55.802;37.032;2023-02-05T08:02:43;100665.72;;;1.18
67515;BMP280;60646;55.802;37.032;2023-02-05T08:05:09;100670.97;;;1.22
67515;BMP280;60646;55.802;37.032;2023-02-05T08:07:35;100659.66;;;1.25
67515;BMP280;60646;55.802;37.032;2023-02-05T08:10:03;100665.66;;;1.29
67515;BMP280;60646;55.802;37.032;2023-02-05T08:12:29;100668.25;;;1.32
67515;BMP280;60646;55.802;37.032;2023-02-05T08:14:55;100676.09;;;1.40
67515;BMP280;60646;55.802;37.032;2023-02-05T08:17:20;100671.97;;;1.38
67515;BMP280;60646;55.802;37.032;2023-02-05T08:19:46;100665.19;;;1.37
67515;BMP280;60646;55.802;37.032;2023-02-05T08:22:12;100680.56;;;1.43
67515;BMP280;60646;55.802;37.032;2023-02-05T08:24:39;100687.69;;;1.49
67515;BMP280;60646;55.802;37.032;2023-02-05T08:27:05;100680.22;;;1.41
67515;BMP280;60646;55.802;37.032;2023-02-05T08:29:31;100681.38;;;1.40
67515;BMP280;60646;55.802;37.032;2023-02-05T08:31:58;100686.63;;;1.40
67515;BMP280;60646;55.802;37.032;2023-02-05T08:34:24;100683.59;;;1.41
67515;BMP280;60646;55.802;37.032;2023-02-05T08:36:50;100690.38;;;1.38
67515;BMP280;60646;55.802;37.032;2023-02-05T08:39:16;100681.78;;;1.34
67515;BMP280;60646;55.802;37.032;2023-02-05T08:41:42;100691.88;;;1.40
67515;BMP280;60646;55.802;37.032;2023-02-05T08:44:07;100690.38;;;1.38
67515;BMP280;60646;55.802;37.032;2023-02-05T08:46:33;100695.97;;;1.48
67515;BMP280;60646;55.802;37.032;2023-02-05T08:48:59;100678.31;;;1.45
67515;BMP280;60646;55.802;37.032;2023-02-05T08:51:25;100685.03;;;1.53
67515;BMP280;60646;55.802;37.032;2023-02-05T08:53:52;100689.47;;;1.63
67515;BMP280;60646;55.802;37.032;2023-02-05T08:56:18;100686.84;;;1.63
67515;BMP280;60646;55.802;37.032;2023-02-05T08:58:44;100682.63;;;1.69
67515;BMP280;60646;55.802;37.032;2023-02-05T09:01:12;100682.63;;;1.69
67515;BMP280;60646;55.802;37.032;2023-02-05T09:03:38;100706.50;;;1.92
67515;BMP280;60646;55.802;37.032;2023-02-05T09:06:06;100691.50;;;1.89
67515;BMP280;60646;55.802;37.032;2023-02-05T09:08:32;100704.25;;;1.94
67515;BMP280;60646;55.802;37.032;2023-02-05T09:10:58;100689.91;;;1.99
67515;BMP280;60646;55.802;37.032;2023-02-05T09:13:23;100691.31;;;2.07
67515;BMP280;60646;55.802;37.032;2023-02-05T09:15:50;100682.28;;;2.08
67515;BMP280;60646;55.802;37.032;2023-02-05T09:18:16;100703.88;;;2.29
67515;BMP280;60646;55.802;37.032;2023-02-05T09:20:44;100684.28;;;2.30
67515;BMP280;60646;55.802;37.032;2023-02-05T09:23:11;100703.25;;;2.52
67515;BMP280;60646;55.802;37.032;2023-02-05T09:25:39;100689.34;;;2.52
67515;BMP280;60646;55.802;37.032;2023-02-05T09:28:06;100704.53;;;2.71
67515;BMP280;60646;55.802;37.032;2023-02-05T09:30:42;100686.13;;;2.67
67515;BMP280;60646;55.802;37.032;2023-02-05T09:33:09;100683.34;;;2.78
67515;BMP280;60646;55.802;37.032;2023-02-05T09:35:35;100691.88;;;2.89
67515;BMP280;60646;55.802;37.032;2023-02-05T09:41:35;100684.03;;;3.09
67515;BMP280;60646;55.802;37.032;2023-02-05T09:52:21;100703.09;;;3.47
67515;BMP280;60646;55.802;37.032;2023-02-05T09:54:57;100700.66;;;3.56
67515;BMP280;60646;55.802;37.032;2023-02-05T09:57:43;100692.69;;;3.59
67515;BMP280;60646;55.802;37.032;2023-02-05T10:00:24;100696.31;;;3.69
67515;BMP280;60646;55.802;37.032;2023-02-05T10:03:22;100713.75;;;3.86
67515;BMP280;60646;55.802;37.032;2023-02-05T10:22:25;100722.06;;;4.28
67515;BMP280;60646;55.802;37.032;2023-02-05T10:33:16;100712.84;;;4.36
67515;BMP280;60646;55.802;37.032;2023-02-05T10:35:56;100721.00;;;4.45
67515;BMP280;60646;55.802;37.032;2023-02-05T10:38:26;100700.09;;;4.31
67515;BMP280;60646;55.802;37.032;2023-02-05T10:40:55;100714.94;;;4.44
67515;BMP280;60646;55.802;37.032;2023-02-05T10:43:31;100692.84;;;4.35
67515;BMP280;60646;55.802;37.032;2023-02-05T10:46:00;100692.09;;;4.34
67515;BMP280;60646;55.802;37.032;2023-02-05T10:48:49;100716.19;;;4.56
67515;BMP280;60646;55.802;37.032;2023-02-05T10:51:23;100720.34;;;4.57
67515;BMP280;60646;55.802;37.032;2023-02-05T10:53:52;100703.06;;;4.52
67515;BMP280;60646;55.802;37.032;2023-02-05T10:56:18;100707.13;;;4.57
67515;BMP280;60646;55.802;37.032;2023-02-05T10:58:54;100716.75;;;4.67
67515;BMP280;60646;55.802;37.032;2023-02-05T11:01:29;100717.44;;;4.71
67515;BMP280;60646;55.802;37.032;2023-02-05T11:04:03;100700.88;;;4.67
67515;BMP280;60646;55.802;37.032;2023-02-05T11:06:50;100711.16;;;4.81
67515;BMP280;60646;55.802;37.032;2023-02-05T11:14:36;100705.44;;;4.83
67515;BMP280;60646;55.802;37.032;2023-02-05T11:17:06;100713.25;;;4.90
67515;BMP280;60646;55.802;37.032;2023-02-05T11:19:32;100713.31;;;4.86
67515;BMP280;60646;55.802;37.032;2023-02-05T11:22:01;100708.09;;;4.83
67515;BMP280;60646;55.802;37.032;2023-02-05T11:24:31;100714.13;;;4.83
67515;BMP280;60646;55.802;37.032;2023-02-05T11:27:27;100714.13;;;4.83
67515;BMP280;60646;55.802;37.032;2023-02-05T11:29:59;100702.19;;;4.75
67515;BMP280;60646;55.802;37.032;2023-02-05T11:32:40;100701.56;;;4.71
67515;BMP280;60646;55.802;37.032;2023-02-05T11:37:38;100706.75;;;4.75
67515;BMP280;60646;55.802;37.032;2023-02-05T11:40:05;100710.81;;;4.79
67515;BMP280;60646;55.802;37.032;2023-02-05T11:42:31;100697.00;;;4.72
67515;BMP280;60646;55.802;37.032;2023-02-05T11:44:59;100728.13;;;4.84
67515;BMP280;60646;55.802;37.032;2023-02-05T11:47:33;100719.09;;;4.81
67515;BMP280;60646;55.802;37.032;2023-02-05T11:50:01;100700.81;;;4.70
67515;BMP280;60646;55.802;37.032;2023-02-05T11:52:33;100718.75;;;4.79
67515;BMP280;60646;55.802;37.032;2023-02-05T11:55:05;100711.94;;;4.78
67515;BMP280;60646;55.802;37.032;2023-02-05T11:57:36;100705.50;;;4.79
67515;BMP280;60646;55.802;37.032;2023-02-05T12:02:38;100707.59;;;4.72
67515;BMP280;60646;55.802;37.032;2023-02-05T12:05:23;100724.72;;;4.83
67515;BMP280;60646;55.802;37.032;2023-02-05T12:11:23;100723.22;;;4.82
67515;BMP280;60646;55.802;37.032;2023-02-05T12:16:54;100723.28;;;4.79
67515;BMP280;60646;55.802;37.032;2023-02-05T12:25:38;100733.94;;;4.75
67515;BMP280;60646;55.802;37.032;2023-02-05T12:28:33;100735.38;;;4.80
67515;BMP280;60646;55.802;37.032;2023-02-05T12:39:53;100727.38;;;4.63
67515;BMP280;60646;55.802;37.032;2023-02-05T12:42:56;100729.31;;;4.63
67515;BMP280;60646;55.802;37.032;2023-02-05T12:54:17;100733.44;;;4.64
67515;BMP280;60646;55.802;37.032;2023-02-05T12:57:04;100727.34;;;4.67
67515;BMP280;60646;55.802;37.032;2023-02-05T13:07:36;100734.94;;;4.65
67515;BMP280;60646;55.802;37.032;2023-02-05T13:10:06;100718.56;;;4.54
67515;BMP280;60646;55.802;37.032;2023-02-05T13:12:43;100719.94;;;4.58
67515;BMP280;60646;55.802;37.032;2023-02-05T13:15:20;100737.56;;;4.65
67515;BMP280;60646;55.802;37.032;2023-02-05T13:19:05;100736.91;;;4.61
67515;BMP280;60646;55.802;37.032;2023-02-05T13:21:37;100727.94;;;4.55
67515;BMP280;60646;55.802;37.032;2023-02-05T13:24:30;100740.38;;;4.58
67515;BMP280;60646;55.802;37.032;2023-02-05T13:27:20;100713.38;;;4.47
67515;BMP280;60646;55.802;37.032;2023-02-05T13:30:12;100725.47;;;4.48
67515;BMP280;60646;55.802;37.032;2023-02-05T13:32:40;100736.72;;;4.52
67515;BMP280;60646;55.802;37.032;2023-02-05T13:35:07;100740.38;;;4.58
67515;BMP280;60646;55.802;37.032;2023-02-05T13:37:50;100748.31;;;4.58
67515;BMP280;60646;55.802;37.032;2023-02-05T13:49:09;100753.91;;;4.60
67515;BMP280;60646;55.802;37.032;2023-02-05T13:52:22;100744.47;;;4.59
67515;BMP280;60646;55.802;37.032;2023-02-05T13:55:01;100727.72;;;4.49
67515;BMP280;60646;55.802;37.032;2023-02-05T14:00:29;100739.84;;;4.47
67515;BMP280;60646;55.802;37.032;2023-02-05T14:02:56;100738.00;;;4.44
67515;BMP280;60646;55.802;37.032;2023-02-05T14:05:41;100745.69;;;4.54
67515;BMP280;60646;55.802;37.032;2023-02-05T14:08:21;100742.00;;;4.52
67515;BMP280;60646;55.802;37.032;2023-02-05T14:10:59;100745.25;;;4.40
67515;BMP280;60646;55.802;37.032;2023-02-05T14:13:31;100753.41;;;4.49
67515;BMP280;60646;55.802;37.032;2023-02-05T14:19:10;100737.38;;;4.36
67515;BMP280;60646;55.802;37.032;2023-02-05T14:29:51;100762.16;;;4.26
67515;BMP280;60646;55.802;37.032;2023-02-05T14:38:32;100764.50;;;4.20
67515;BMP280;60646;55.802;37.032;2023-02-05T14:41:08;100781.19;;;4.17
67515;BMP280;60646;55.802;37.032;2023-02-05T14:43:39;100774.78;;;4.15
67515;BMP280;60646;55.802;37.032;2023-02-05T14:46:19;100770.72;;;4.10
67515;BMP280;60646;55.802;37.032;2023-02-05T14:48:46;100778.34;;;4.08
67515;BMP280;60646;55.802;37.032;2023-02-05T14:53:53;100773.06;;;4.08
67515;BMP280;60646;55.802;37.032;2023-02-05T14:56:25;100779.03;;;4.12
67515;BMP280;60646;55.802;37.032;2023-02-05T14:59:37;100790.50;;;4.26
67515;BMP280;60646;55.802;37.032;2023-02-05T15:03:52;100792.00;;;4.27
67515;BMP280;60646;55.802;37.032;2023-02-05T15:06:18;100757.28;;;4.01
67515;BMP280;60646;55.802;37.032;2023-02-05T15:09:15;100775.84;;;4.21
67515;BMP280;60646;55.802;37.032;2023-02-05T15:19:49;100782.63;;;4.22
67515;BMP280;60646;55.802;37.032;2023-02-05T15:22:30;100795.31;;;4.31
67515;BMP280;60646;55.802;37.032;2023-02-05T15:24:57;100784.91;;;4.20
67515;BMP280;60646;55.802;37.032;2023-02-05T15:27:44;100797.97;;;4.31
67515;BMP280;60646;55.802;37.032;2023-02-05T15:30:18;100797.22;;;4.30
67515;BMP280;60646;55.802;37.032;2023-02-05T15:32:51;100788.31;;;4.20
67515;BMP280;60646;55.802;37.032;2023-02-05T15:35:21;100789.38;;;4.23
67515;BMP280;60646;55.802;37.032;2023-02-05T15:37:52;100802.09;;;4.32
67515;BMP280;60646;55.802;37.032;2023-02-05T15:40:28;100804.72;;;4.32
67515;BMP280;60646;55.802;37.032;2023-02-05T15:43:00;100775.53;;;4.15
67515;BMP280;60646;55.802;37.032;2023-02-05T15:45:31;100815.72;;;4.30
67515;BMP280;60646;55.802;37.032;2023-02-05T15:48:44;100798.53;;;4.18
67515;BMP280;60646;55.802;37.032;2023-02-05T15:50:48;100799.63;;;4.21
67515;BMP280;60646;55.802;37.032;2023-02-05T15:56:36;100821.78;;;4.31
67515;BMP280;60646;55.802;37.032;2023-02-05T16:01:49;100821.09;;;4.27
67515;BMP280;60646;55.802;37.032;2023-02-05T16:06:45;100824.44;;;4.27
67515;BMP280;60646;55.802;37.032;2023-02-05T16:09:16;100800.47;;;4.14
67515;BMP280;60646;55.802;37.032;2023-02-05T16:11:42;100816.56;;;4.23
67515;BMP280;60646;55.802;37.032;2023-02-05T16:14:13;100825.50;;;4.33
67515;BMP280;60646;55.802;37.032;2023-02-05T16:24:48;100817.16;;;4.35
67515;BMP280;60646;55.802;37.032;2023-02-05T16:27:21;100831.66;;;4.46
67515;BMP280;60646;55.802;37.032;2023-02-05T16:29:56;100777.91;;;4.10
67515;BMP280;60646;55.802;37.032;2023-02-05T16:32:35;100793.53;;;4.24
67515;BMP280;60646;55.802;37.032;2023-02-05T16:35:04;100776.38;;;4.12
67515;BMP280;60646;55.802;37.032;2023-02-05T16:37:31;100822.97;;;4.46
67515;BMP280;60646;55.802;37.032;2023-02-05T16:40:00;100820.69;;;4.48
67515;BMP280;60646;55.802;37.032;2023-02-05T16:42:34;100833.47;;;4.53
67515;BMP280;60646;55.802;37.032;2023-02-05T16:47:30;100828.16;;;4.53
67515;BMP280;60646;55.802;37.032;2023-02-05T16:49:56;100834.25;;;4.50
67515;BMP280;60646;55.802;37.032;2023-02-05T16:52:29;100825.22;;;4.47
67515;BMP280;60646;55.802;37.032;2023-02-05T16:54:57;100848.09;;;4.57
67515;BMP280;60646;55.802;37.032;2023-02-05T16:57:33;100834.97;;;4.54
67515;BMP280;60646;55.802;37.032;2023-02-05T17:00:12;100846.97;;;4.58
67515;BMP280;60646;55.802;37.032;2023-02-05T17:02:42;100849.94;;;4.60
67515;BMP280;60646;55.802;37.032;2023-02-05T17:25:54;100830.47;;;3.58
67515;BMP280;60646;55.802;37.032;2023-02-05T17:28:24;100862.47;;;3.90
67515;BMP280;60646;55.802;37.032;2023-02-05T17:30:53;100858.59;;;3.95
67515;BMP280;60646;55.802;37.032;2023-02-05T17:33:22;100877.50;;;4.16